createdAt,value
2018-10-18T16:00:54.668Z,15.90
2018-10-18T16:03:22.865Z,18.07
2018-10-18T16:05:51.057Z,12.07
2018-10-18T16:08:19.245Z,14.03
2018-10-18T16:10:47.457Z,10.03
2018-10-18T16:13:15.606Z,12.37
2018-10-18T16:15:43.789Z,10.87
2018-10-18T16:18:11.968Z,11.47
2018-10-18T16:20:40.168Z,13.23
2018-10-18T16:23:08.356Z,12.77
2018-10-18T16:25:36.481Z,12.23
2018-10-18T16:28:04.672Z,15.83
2018-10-18T16:30:32.848Z,13.13
2018-10-18T16:33:01.037Z,13.80
2018-10-18T16:35:29.238Z,14.20
2018-10-18T16:37:57.463Z,17.03
2018-10-18T16:40:25.601Z,19.03
2018-10-18T16:42:53.815Z,13.43
2018-10-18T16:45:22.108Z,12.30
2018-10-18T16:47:50.408Z,14.83
2018-10-18T16:50:18.553Z,11.10
2018-10-18T16:52:46.660Z,12.10
2018-10-18T16:55:14.973Z,11.80
2018-10-18T16:57:43.128Z,10.73
2018-10-18T17:00:12.388Z,11.80
2018-10-18T17:02:40.474Z,11.87
2018-10-18T17:05:08.715Z,9.30
2018-10-18T17:07:36.923Z,10.57
2018-10-18T17:10:05.442Z,12.83
2018-10-18T17:12:33.593Z,9.70
2018-10-18T17:15:01.763Z,9.60
2018-10-18T17:17:29.924Z,9.13
2018-10-18T17:19:58.148Z,10.70
2018-10-18T17:22:26.257Z,9.27
2018-10-18T17:24:54.420Z,14.27
2018-10-18T17:27:22.686Z,8.70
2018-10-18T17:29:50.813Z,12.63
2018-10-18T17:32:19.065Z,8.93
2018-10-18T17:34:47.135Z,10.43
2018-10-18T17:37:15.312Z,9.73
2018-10-18T17:39:43.502Z,11.37
2018-10-18T17:42:11.764Z,10.50
2018-10-18T17:44:39.825Z,8.67
2018-10-18T17:47:08.063Z,11.60
2018-10-18T17:49:36.183Z,9.30
2018-10-18T17:52:04.435Z,8.83
2018-10-18T17:54:32.525Z,14.80
2018-10-18T17:57:00.717Z,14.23
2018-10-18T17:59:28.887Z,10.37
2018-10-18T18:01:57.089Z,20.33
2018-10-18T18:04:25.237Z,15.20
2018-10-18T18:06:53.502Z,9.80
2018-10-18T18:09:21.613Z,9.17
2018-10-18T18:11:49.833Z,7.93
2018-10-18T18:14:17.993Z,8.60
2018-10-18T18:16:46.163Z,7.60
2018-10-18T18:19:14.333Z,7.73
2018-10-18T18:21:42.518Z,8.70
2018-10-18T18:24:10.685Z,9.60
2018-10-18T18:26:45.265Z,8.43
2018-10-18T18:29:07.005Z,11.20
2018-10-18T18:31:35.181Z,8.10
2018-10-18T18:34:03.438Z,8.47
2018-10-18T18:36:31.645Z,11.43
2018-10-18T18:38:59.869Z,10.60
2018-10-18T18:41:28.017Z,12.10
2018-10-18T18:43:56.224Z,10.13
2018-10-18T18:46:24.433Z,9.77
2018-10-18T18:48:52.639Z,11.20
2018-10-18T18:51:20.932Z,10.27
2018-10-18T18:53:49.118Z,10.00
2018-10-18T18:56:17.281Z,9.13
2018-10-18T18:58:45.453Z,11.30
2018-10-18T19:01:13.630Z,8.30
2018-10-18T19:03:41.969Z,8.77
2018-10-18T19:06:10.153Z,15.00
2018-10-18T19:08:38.365Z,8.60
2018-10-18T19:11:06.582Z,9.70
2018-10-18T19:13:35.145Z,10.43
2018-10-18T19:16:03.270Z,14.57
2018-10-18T19:18:31.465Z,14.23
2018-10-18T19:20:59.664Z,9.27
2018-10-18T19:23:27.865Z,14.63
2018-10-18T19:25:56.124Z,10.90
2018-10-18T19:28:24.333Z,12.73
2018-10-18T19:30:52.644Z,12.70
2018-10-18T19:33:20.866Z,10.70
2018-10-18T19:35:49.035Z,12.97
2018-10-18T19:38:17.271Z,11.70
2018-10-18T19:40:45.388Z,11.97
2018-10-18T19:43:13.570Z,9.90
2018-10-18T19:45:41.752Z,12.00
2018-10-18T19:48:09.934Z,12.93
2018-10-18T19:50:38.208Z,13.27
2018-10-18T19:53:06.821Z,16.00
2018-10-18T19:55:35.023Z,12.77
2018-10-18T19:58:03.267Z,15.20
2018-10-18T20:00:31.461Z,13.90
2018-10-18T20:02:59.678Z,14.10
2018-10-18T20:05:27.861Z,11.80
2018-10-18T20:07:56.194Z,17.80
2018-10-18T20:10:24.357Z,15.17
2018-10-18T20:12:52.609Z,10.60
2018-10-18T20:15:20.758Z,14.60
2018-10-18T20:17:55.633Z,14.10
2018-10-18T20:20:23.853Z,10.93
2018-10-18T20:22:52.062Z,17.43
2018-10-18T20:25:20.331Z,16.00
2018-10-18T20:27:48.396Z,20.67
2018-10-18T20:30:16.659Z,15.07
2018-10-18T20:32:44.768Z,18.63
2018-10-18T20:35:12.929Z,15.33
2018-10-18T20:37:41.504Z,16.50
2018-10-18T20:40:12.106Z,13.60
2018-10-18T20:42:40.657Z,15.23
2018-10-18T20:45:11.024Z,17.50
2018-10-18T20:47:39.244Z,17.83
2018-10-18T20:50:07.374Z,16.20
2018-10-18T20:52:35.546Z,16.57
2018-10-18T20:55:03.695Z,18.20
2018-10-18T20:57:31.875Z,16.50
2018-10-18T21:00:00.074Z,16.17
2018-10-18T21:02:28.213Z,15.80
2018-10-18T21:04:56.378Z,21.07
2018-10-18T21:07:24.574Z,14.53
2018-10-18T21:09:52.745Z,18.17
2018-10-18T21:12:20.933Z,22.17
2018-10-18T21:14:49.085Z,20.10
2018-10-18T21:17:17.313Z,18.53
2018-10-18T21:19:45.506Z,23.20
2018-10-18T21:22:13.646Z,17.70
2018-10-18T21:24:41.798Z,18.60
2018-10-18T21:27:10.000Z,24.33
2018-10-18T21:29:38.129Z,16.80
2018-10-18T21:32:06.304Z,19.53
2018-10-18T21:34:34.480Z,26.17
2018-10-18T21:37:02.624Z,21.53
2018-10-18T21:39:34.224Z,20.10
2018-10-18T21:42:03.033Z,24.23
2018-10-18T21:44:32.757Z,23.63
2018-10-18T21:47:01.398Z,22.60
2018-10-18T21:49:30.048Z,22.73
2018-10-18T21:51:58.221Z,22.00
2018-10-18T21:54:26.912Z,23.10
2018-10-18T21:56:55.354Z,24.87
2018-10-18T21:59:23.600Z,27.13
